sensor_id;sensor_type;location;lat;lon;timestamp;P1;durP1;ratioP1;P2;durP2;ratioP2
48006;SDS011;33771;48.180;11.400;2022-12-07T00:01:38;15.00;;;10.50;;
48006;SDS011;33771;48.180;11.400;2022-12-07T00:04:06;13.77;;;9.83;;
48006;SDS011;33771;48.180;11.400;2022-12-07T00:06:34;13.97;;;10.40;;
48006;SDS011;33771;48.180;11.400;2022-12-07T00:09:03;14.27;;;10.87;;
48006;SDS011;33771;48.180;11.400;2022-12-07T00:11:31;13.57;;;9.97;;
48006;SDS011;33771;48.180;11.400;2022-12-07T00:13:58;14.47;;;9.80;;
48006;SDS011;33771;48.180;11.400;2022-12-07T00:16:26;12.63;;;9.90;;
48006;SDS011;33771;48.180;11.400;2022-12-07T00:18:53;13.13;;;10.23;;
48006;SDS011;33771;48.180;11.400;2022-12-07T00:21:21;13.67;;;10.40;;
48006;SDS011;33771;48.180;11.400;2022-12-07T00:23:49;12.87;;;10.50;;
48006;SDS011;33771;48.180;11.400;2022-12-07T00:26:17;14.17;;;9.47;;
48006;SDS011;33771;48.180;11.400;2022-12-07T00:28:47;15.20;;;10.33;;
48006;SDS011;33771;48.180;11.400;2022-12-07T00:31:14;14.73;;;10.77;;
48006;SDS011;33771;48.180;11.400;2022-12-07T00:33:41;15.23;;;10.17;;
48006;SDS011;33771;48.180;11.400;2022-12-07T00:36:08;13.33;;;9.83;;
48006;SDS011;33771;48.180;11.400;2022-12-07T00:38:36;14.07;;;9.77;;
48006;SDS011;33771;48.180;11.400;2022-12-07T00:41:06;13.33;;;9.60;;
48006;SDS011;33771;48.180;11.400;2022-12-07T00:43:40;14.43;;;9.83;;
48006;SDS011;33771;48.180;11.400;2022-12-07T00:46:06;13.53;;;10.00;;
48006;SDS011;33771;48.180;11.400;2022-12-07T00:48:33;14.43;;;9.87;;
48006;SDS011;33771;48.180;11.400;2022-12-07T00:50:58;13.10;;;9.57;;
48006;SDS011;33771;48.180;11.400;2022-12-07T00:53:24;13.50;;;9.90;;
48006;SDS011;33771;48.180;11.400;2022-12-07T00:55:51;13.47;;;9.63;;
48006;SDS011;33771;48.180;11.400;2022-12-07T00:58:17;14.07;;;9.70;;
48006;SDS011;33771;48.180;11.400;2022-12-07T01:00:43;12.90;;;9.60;;
48006;SDS011;33771;48.180;11.400;2022-12-07T01:03:10;12.57;;;9.57;;
48006;SDS011;33771;48.180;11.400;2022-12-07T01:05:37;13.70;;;9.83;;
48006;SDS011;33771;48.180;11.400;2022-12-07T01:08:03;12.70;;;9.93;;
48006;SDS011;33771;48.180;11.400;2022-12-07T01:10:28;16.97;;;10.80;;
48006;SDS011;33771;48.180;11.400;2022-12-07T01:12:55;13.37;;;9.97;;
48006;SDS011;33771;48.180;11.400;2022-12-07T01:15:21;14.20;;;9.13;;
48006;SDS011;33771;48.180;11.400;2022-12-07T01:17:47;13.17;;;9.77;;
48006;SDS011;33771;48.180;11.400;2022-12-07T01:20:13;13.87;;;10.27;;
48006;SDS011;33771;48.180;11.400;2022-12-07T01:22:40;17.03;;;10.33;;
48006;SDS011;33771;48.180;11.400;2022-12-07T01:25:07;15.53;;;9.60;;
48006;SDS011;33771;48.180;11.400;2022-12-07T01:27:34;14.37;;;10.67;;
48006;SDS011;33771;48.180;11.400;2022-12-07T01:30:00;12.60;;;9.30;;
48006;SDS011;33771;48.180;11.400;2022-12-07T01:32:27;14.77;;;9.97;;
48006;SDS011;33771;48.180;11.400;2022-12-07T01:34:53;14.23;;;10.37;;
48006;SDS011;33771;48.180;11.400;2022-12-07T01:37:19;14.50;;;10.17;;
48006;SDS011;33771;48.180;11.400;2022-12-07T01:39:47;13.77;;;9.97;;
48006;SDS011;33771;48.180;11.400;2022-12-07T01:42:14;14.13;;;10.37;;
48006;SDS011;33771;48.180;11.400;2022-12-07T01:47:43;12.67;;;9.00;;
48006;SDS011;33771;48.180;11.400;2022-12-07T01:50:15;12.33;;;9.70;;
48006;SDS011;33771;48.180;11.400;2022-12-07T01:52:41;14.70;;;9.43;;
48006;SDS011;33771;48.180;11.400;2022-12-07T01:55:09;12.97;;;10.03;;
48006;SDS011;33771;48.180;11.400;2022-12-07T01:57:46;13.63;;;9.80;;
48006;SDS011;33771;48.180;11.400;2022-12-07T02:02:43;14.43;;;9.87;;
48006;SDS011;33771;48.180;11.400;2022-12-07T02:05:28;12.70;;;9.63;;
48006;SDS011;33771;48.180;11.400;2022-12-07T02:07:55;14.70;;;9.53;;
48006;SDS011;33771;48.180;11.400;2022-12-07T02:10:23;12.60;;;9.47;;
48006;SDS011;33771;48.180;11.400;2022-12-07T02:12:55;12.43;;;9.57;;
48006;SDS011;33771;48.180;11.400;2022-12-07T02:15:25;12.20;;;9.70;;
48006;SDS011;33771;48.180;11.400;2022-12-07T02:18:07;13.97;;;9.83;;
48006;SDS011;33771;48.180;11.400;2022-12-07T02:20:43;16.37;;;11.50;;
48006;SDS011;33771;48.180;11.400;2022-12-07T02:28:33;15.60;;;11.10;;
48006;SDS011;33771;48.180;11.400;2022-12-07T02:31:20;14.90;;;10.87;;
48006;SDS011;33771;48.180;11.400;2022-12-07T02:33:54;15.03;;;10.53;;
48006;SDS011;33771;48.180;11.400;2022-12-07T02:36:34;13.07;;;8.90;;
48006;SDS011;33771;48.180;11.400;2022-12-07T02:39:21;16.30;;;11.60;;
48006;SDS011;33771;48.180;11.400;2022-12-07T02:42:10;16.83;;;10.30;;
48006;SDS011;33771;48.180;11.400;2022-12-07T02:44:42;17.13;;;11.70;;
48006;SDS011;33771;48.180;11.400;2022-12-07T02:47:10;17.00;;;11.27;;
48006;SDS011;33771;48.180;11.400;2022-12-07T02:49:40;17.00;;;11.27;;
48006;SDS011;33771;48.180;11.400;2022-12-07T02:52:06;15.13;;;11.00;;
48006;SDS011;33771;48.180;11.400;2022-12-07T02:54:32;16.80;;;11.83;;
48006;SDS011;33771;48.180;11.400;2022-12-07T02:57:04;15.47;;;10.83;;
48006;SDS011;33771;48.180;11.400;2022-12-07T03:08:10;13.83;;;10.53;;
48006;SDS011;33771;48.180;11.400;2022-12-07T03:19:06;15.33;;;10.67;;
48006;SDS011;33771;48.180;11.400;2022-12-07T03:21:37;15.95;;;10.63;;
48006;SDS011;33771;48.180;11.400;2022-12-07T03:24:14;15.73;;;11.40;;
48006;SDS011;33771;48.180;11.400;2022-12-07T03:26:47;15.85;;;11.50;;
48006;SDS011;33771;48.180;11.400;2022-12-07T03:29:20;16.23;;;12.23;;
48006;SDS011;33771;48.180;11.400;2022-12-07T03:32:24;16.33;;;11.80;;
48006;SDS011;33771;48.180;11.400;2022-12-07T03:34:56;14.60;;;11.37;;
48006;SDS011;33771;48.180;11.400;2022-12-07T03:38:14;16.40;;;12.00;;
48006;SDS011;33771;48.180;11.400;2022-12-07T03:43:14;17.00;;;11.87;;
48006;SDS011;33771;48.180;11.400;2022-12-07T03:45:43;17.70;;;12.03;;
48006;SDS011;33771;48.180;11.400;2022-12-07T03:51:21;17.67;;;11.63;;
48006;SDS011;33771;48.180;11.400;2022-12-07T03:53:54;20.20;;;12.90;;
48006;SDS011;33771;48.180;11.400;2022-12-07T03:56:30;16.67;;;12.00;;
48006;SDS011;33771;48.180;11.400;2022-12-07T03:58:57;15.60;;;11.33;;
48006;SDS011;33771;48.180;11.400;2022-12-07T04:01:23;14.67;;;10.77;;
48006;SDS011;33771;48.180;11.400;2022-12-07T04:03:49;15.73;;;11.53;;
48006;SDS011;33771;48.180;11.400;2022-12-07T04:06:14;17.37;;;11.87;;
48006;SDS011;33771;48.180;11.400;2022-12-07T04:08:40;14.50;;;11.70;;
48006;SDS011;33771;48.180;11.400;2022-12-07T04:11:06;19.93;;;12.17;;
48006;SDS011;33771;48.180;11.400;2022-12-07T04:13:31;19.43;;;11.43;;
48006;SDS011;33771;48.180;11.400;2022-12-07T04:16:17;17.88;;;11.82;;
48006;SDS011;33771;48.180;11.400;2022-12-07T04:18:42;19.07;;;12.27;;
48006;SDS011;33771;48.180;11.400;2022-12-07T04:21:08;18.83;;;12.67;;
48006;SDS011;33771;48.180;11.400;2022-12-07T04:23:33;17.20;;;12.17;;
48006;SDS011;33771;48.180;11.400;2022-12-07T04:25:59;16.67;;;11.57;;
48006;SDS011;33771;48.180;11.400;2022-12-07T04:28:25;16.43;;;12.37;;
48006;SDS011;33771;48.180;11.400;2022-12-07T04:30:50;16.10;;;11.70;;
48006;SDS011;33771;48.180;11.400;2022-12-07T04:33:16;15.40;;;11.67;;
48006;SDS011;33771;48.180;11.400;2022-12-07T04:35:42;15.70;;;11.33;;
48006;SDS011;33771;48.180;11.400;2022-12-07T04:38:08;14.87;;;11.73;;
48006;SDS011;33771;48.180;11.400;2022-12-07T04:40:35;17.60;;;12.63;;
48006;SDS011;33771;48.180;11.400;2022-12-07T04:43:04;16.07;;;12.13;;
48006;SDS011;33771;48.180;11.400;2022-12-07T04:45:33;15.57;;;12.07;;
48006;SDS011;33771;48.180;11.400;2022-12-07T05:00:57;19.50;;;12.23;;
48006;SDS011;33771;48.180;11.400;2022-12-07T05:06:45;18.83;;;13.53;;
48006;SDS011;33771;48.180;11.400;2022-12-07T05:16:33;18.37;;;13.17;;
48006;SDS011;33771;48.180;11.400;2022-12-07T05:19:51;18.98;;;13.00;;
48006;SDS011;33771;48.180;11.400;2022-12-07T05:32:39;19.40;;;13.67;;
48006;SDS011;33771;48.180;11.400;2022-12-07T05:38:38;19.45;;;13.32;;
48006;SDS011;33771;48.180;11.400;2022-12-07T05:44:33;19.63;;;13.80;;
48006;SDS011;33771;48.180;11.400;2022-12-07T05:47:07;19.80;;;13.97;;
48006;SDS011;33771;48.180;11.400;2022-12-07T05:49:41;19.77;;;13.87;;
48006;SDS011;33771;48.180;11.400;2022-12-07T05:52:18;21.73;;;14.17;;
48006;SDS011;33771;48.180;11.400;2022-12-07T05:55:02;19.53;;;13.43;;
48006;SDS011;33771;48.180;11.400;2022-12-07T05:57:28;20.07;;;13.57;;
48006;SDS011;33771;48.180;11.400;2022-12-07T06:00:00;21.90;;;13.57;;
48006;SDS011;33771;48.180;11.400;2022-12-07T06:02:29;19.83;;;14.17;;
48006;SDS011;33771;48.180;11.400;2022-12-07T06:05:02;19.80;;;14.53;;
48006;SDS011;33771;48.180;11.400;2022-12-07T06:07:40;19.77;;;13.83;;
48006;SDS011;33771;48.180;11.400;2022-12-07T06:10:17;20.23;;;13.90;;
48006;SDS011;33771;48.180;11.400;2022-12-07T06:13:06;20.63;;;14.23;;
48006;SDS011;33771;48.180;11.400;2022-12-07T06:16:15;20.70;;;14.50;;
48006;SDS011;33771;48.180;11.400;2022-12-07T06:19:34;20.73;;;14.80;;
48006;SDS011;33771;48.180;11.400;2022-12-07T06:26:02;19.13;;;13.93;;
48006;SDS011;33771;48.180;11.400;2022-12-07T06:29:09;18.80;;;13.63;;
48006;SDS011;33771;48.180;11.400;2022-12-07T06:32:03;20.17;;;14.33;;
48006;SDS011;33771;48.180;11.400;2022-12-07T08:17:43;23.50;;;16.83;;
48006;SDS011;33771;48.180;11.400;2022-12-07T08:20:41;27.27;;;17.07;;
48006;SDS011;33771;48.180;11.400;2022-12-07T08:26:40;24.80;;;17.83;;
48006;SDS011;33771;48.180;11.400;2022-12-07T08:29:32;26.23;;;17.73;;
48006;SDS011;33771;48.180;11.400;2022-12-07T08:31:58;25.57;;;17.50;;
48006;SDS011;33771;48.180;11.400;2022-12-07T08:34:42;24.33;;;16.63;;
48006;SDS011;33771;48.180;11.400;2022-12-07T08:37:22;28.10;;;18.60;;
48006;SDS011;33771;48.180;11.400;2022-12-07T08:40:09;22.93;;;17.13;;
48006;SDS011;33771;48.180;11.400;2022-12-07T08:42:51;26.60;;;18.27;;
48006;SDS011;33771;48.180;11.400;2022-12-07T08:46:10;23.50;;;17.47;;
48006;SDS011;33771;48.180;11.400;2022-12-07T08:49:13;25.83;;;17.20;;
48006;SDS011;33771;48.180;11.400;2022-12-07T08:58:50;25.83;;;16.87;;
48006;SDS011;33771;48.180;11.400;2022-12-07T09:01:28;26.47;;;17.20;;
48006;SDS011;33771;48.180;11.400;2022-12-07T09:03:54;24.97;;;17.60;;
48006;SDS011;33771;48.180;11.400;2022-12-07T09:06:22;25.20;;;16.90;;
48006;SDS011;33771;48.180;11.400;2022-12-07T09:08:49;25.60;;;17.30;;
48006;SDS011;33771;48.180;11.400;2022-12-07T09:11:18;23.43;;;16.97;;
48006;SDS011;33771;48.180;11.400;2022-12-07T09:13:44;24.03;;;16.90;;
48006;SDS011;33771;48.180;11.400;2022-12-07T09:16:09;22.30;;;16.07;;
48006;SDS011;33771;48.180;11.400;2022-12-07T09:18:35;23.13;;;16.20;;
48006;SDS011;33771;48.180;11.400;2022-12-07T09:21:00;23.33;;;16.47;;
48006;SDS011;33771;48.180;11.400;2022-12-07T09:23:26;23.67;;;16.67;;
48006;SDS011;33771;48.180;11.400;2022-12-07T09:25:52;25.33;;;17.20;;
48006;SDS011;33771;48.180;11.400;2022-12-07T09:28:17;23.90;;;17.03;;
48006;SDS011;33771;48.180;11.400;2022-12-07T09:30:50;25.43;;;17.43;;
48006;SDS011;33771;48.180;11.400;2022-12-07T09:33:15;25.20;;;16.13;;
48006;SDS011;33771;48.180;11.400;2022-12-07T09:35:48;23.70;;;16.30;;
48006;SDS011;33771;48.180;11.400;2022-12-07T09:38:14;22.27;;;15.73;;
48006;SDS011;33771;48.180;11.400;2022-12-07T09:40:40;22.77;;;15.47;;
48006;SDS011;33771;48.180;11.400;2022-12-07T09:43:18;23.37;;;15.90;;
48006;SDS011;33771;48.180;11.400;2022-12-07T09:45:47;23.73;;;16.77;;
48006;SDS011;33771;48.180;11.400;2022-12-07T09:48:17;22.97;;;15.37;;
48006;SDS011;33771;48.180;11.400;2022-12-07T09:50:45;20.93;;;15.13;;
48006;SDS011;33771;48.180;11.400;2022-12-07T09:53:34;21.50;;;15.40;;
48006;SDS011;33771;48.180;11.400;2022-12-07T09:55:59;20.43;;;14.00;;
48006;SDS011;33771;48.180;11.400;2022-12-07T09:58:26;20.33;;;14.80;;
48006;SDS011;33771;48.180;11.400;2022-12-07T10:00:54;22.17;;;16.27;;
48006;SDS011;33771;48.180;11.400;2022-12-07T10:03:23;24.73;;;16.27;;
48006;SDS011;33771;48.180;11.400;2022-12-07T10:05:52;20.77;;;14.80;;
48006;SDS011;33771;48.180;11.400;2022-12-07T10:08:18;20.53;;;14.33;;
48006;SDS011;33771;48.180;11.400;2022-12-07T10:10:45;20.43;;;14.03;;
48006;SDS011;33771;48.180;11.400;2022-12-07T10:13:14;22.33;;;15.43;;
48006;SDS011;33771;48.180;11.400;2022-12-07T10:15:44;24.17;;;15.10;;
48006;SDS011;33771;48.180;11.400;2022-12-07T10:21:00;19.87;;;14.50;;
48006;SDS011;33771;48.180;11.400;2022-12-07T10:25:53;21.80;;;13.50;;
48006;SDS011;33771;48.180;11.400;2022-12-07T10:28:22;22.27;;;14.17;;
48006;SDS011;33771;48.180;11.400;2022-12-07T10:30:51;18.57;;;13.37;;
48006;SDS011;33771;48.180;11.400;2022-12-07T10:33:36;22.07;;;14.53;;
48006;SDS011;33771;48.180;11.400;2022-12-07T10:38:49;16.80;;;12.60;;
48006;SDS011;33771;48.180;11.400;2022-12-07T10:41:24;16.73;;;11.93;;
48006;SDS011;33771;48.180;11.400;2022-12-07T10:43:54;21.77;;;12.63;;
48006;SDS011;33771;48.180;11.400;2022-12-07T10:56:33;17.50;;;11.50;;
48006;SDS011;33771;48.180;11.400;2022-12-07T11:04:57;13.30;;;9.27;;
48006;SDS011;33771;48.180;11.400;2022-12-07T11:10:18;11.70;;;8.40;;
48006;SDS011;33771;48.180;11.400;2022-12-07T11:18:22;12.00;;;8.67;;
48006;SDS011;33771;48.180;11.400;2022-12-07T11:29:21;9.93;;;7.10;;
48006;SDS011;33771;48.180;11.400;2022-12-07T11:37:18;10.67;;;6.87;;
48006;SDS011;33771;48.180;11.400;2022-12-07T11:39:50;10.40;;;6.47;;
48006;SDS011;33771;48.180;11.400;2022-12-07T11:42:21;10.43;;;6.57;;
48006;SDS011;33771;48.180;11.400;2022-12-07T11:45:41;11.27;;;7.00;;
48006;SDS011;33771;48.180;11.400;2022-12-07T11:47:46;10.53;;;6.67;;
48006;SDS011;33771;48.180;11.400;2022-12-07T11:50:41;11.23;;;7.07;;
48006;SDS011;33771;48.180;11.400;2022-12-07T11:55:50;12.13;;;7.40;;
48006;SDS011;33771;48.180;11.400;2022-12-07T12:06:27;12.10;;;8.70;;
48006;SDS011;33771;48.180;11.400;2022-12-07T12:09:00;12.60;;;8.80;;
48006;SDS011;33771;48.180;11.400;2022-12-07T12:17:57;11.93;;;8.63;;
48006;SDS011;33771;48.180;11.400;2022-12-07T12:20:37;15.57;;;8.80;;
48006;SDS011;33771;48.180;11.400;2022-12-07T12:23:12;11.07;;;7.83;;
48006;SDS011;33771;48.180;11.400;2022-12-07T12:25:54;12.60;;;8.83;;
48006;SDS011;33771;48.180;11.400;2022-12-07T12:28:30;14.57;;;9.10;;
48006;SDS011;33771;48.180;11.400;2022-12-07T12:31:05;14.60;;;9.70;;
48006;SDS011;33771;48.180;11.400;2022-12-07T12:33:44;12.13;;;9.00;;
48006;SDS011;33771;48.180;11.400;2022-12-07T12:46:59;12.80;;;9.43;;
48006;SDS011;33771;48.180;11.400;2022-12-07T12:51:59;12.63;;;9.13;;
48006;SDS011;33771;48.180;11.400;2022-12-07T12:57:28;12.47;;;9.07;;
48006;SDS011;33771;48.180;11.400;2022-12-07T12:59:59;11.47;;;8.20;;
48006;SDS011;33771;48.180;11.400;2022-12-07T13:02:29;13.53;;;8.80;;
48006;SDS011;33771;48.180;11.400;2022-12-07T13:05:01;12.87;;;9.00;;
48006;SDS011;33771;48.180;11.400;2022-12-07T13:28:46;15.83;;;9.57;;
48006;SDS011;33771;48.180;11.400;2022-12-07T13:36:58;14.07;;;9.20;;
48006;SDS011;33771;48.180;11.400;2022-12-07T13:39:27;14.53;;;9.53;;
48006;SDS011;33771;48.180;11.400;2022-12-07T13:41:55;15.73;;;9.07;;
48006;SDS011;33771;48.180;11.400;2022-12-07T13:44:24;13.70;;;9.27;;
48006;SDS011;33771;48.180;11.400;2022-12-07T13:49:49;13.77;;;8.17;;
48006;SDS011;33771;48.180;11.400;2022-12-07T13:54:49;18.70;;;6.97;;
48006;SDS011;33771;48.180;11.400;2022-12-07T13:57:20;15.10;;;6.60;;
48006;SDS011;33771;48.180;11.400;2022-12-07T13:59:47;15.47;;;8.57;;
48006;SDS011;33771;48.180;11.400;2022-12-07T14:02:18;10.07;;;6.70;;
48006;SDS011;33771;48.180;11.400;2022-12-07T14:04:46;10.77;;;6.93;;
48006;SDS011;33771;48.180;11.400;2022-12-07T14:07:23;12.80;;;6.93;;
48006;SDS011;33771;48.180;11.400;2022-12-07T14:09:54;11.80;;;7.70;;
48006;SDS011;33771;48.180;11.400;2022-12-07T14:12:21;11.90;;;7.53;;
48006;SDS011;33771;48.180;11.400;2022-12-07T14:14:47;9.63;;;7.30;;
48006;SDS011;33771;48.180;11.400;2022-12-07T14:17:20;13.30;;;7.40;;
48006;SDS011;33771;48.180;11.400;2022-12-07T14:27:49;15.07;;;7.63;;
48006;SDS011;33771;48.180;11.400;2022-12-07T14:30:18;11.57;;;7.90;;
48006;SDS011;33771;48.180;11.400;2022-12-07T14:32:44;15.53;;;8.57;;
48006;SDS011;33771;48.180;11.400;2022-12-07T14:35:14;12.83;;;8.70;;
48006;SDS011;33771;48.180;11.400;2022-12-07T14:37:42;14.73;;;8.10;;
48006;SDS011;33771;48.180;11.400;2022-12-07T14:40:12;13.97;;;8.63;;
48006;SDS011;33771;48.180;11.400;2022-12-07T14:42:39;13.27;;;8.57;;
48006;SDS011;33771;48.180;11.400;2022-12-07T14:45:11;12.87;;;8.50;;
48006;SDS011;33771;48.180;11.400;2022-12-07T14:47:42;13.77;;;8.37;;
48006;SDS011;33771;48.180;11.400;2022-12-07T14:50:11;14.97;;;9.10;;
48006;SDS011;33771;48.180;11.400;2022-12-07T14:52:37;13.87;;;9.00;;
48006;SDS011;33771;48.180;11.400;2022-12-07T14:55:04;14.23;;;9.87;;
48006;SDS011;33771;48.180;11.400;2022-12-07T14:57:30;17.20;;;9.73;;
48006;SDS011;33771;48.180;11.400;2022-12-07T14:59:55;15.30;;;9.17;;
48006;SDS011;33771;48.180;11.400;2022-12-07T15:02:21;13.13;;;9.27;;
48006;SDS011;33771;48.180;11.400;2022-12-07T15:04:46;16.17;;;10.70;;
48006;SDS011;33771;48.180;11.400;2022-12-07T15:07:15;15.70;;;10.33;;
48006;SDS011;33771;48.180;11.400;2022-12-07T15:09:46;16.10;;;10.20;;
48006;SDS011;33771;48.180;11.400;2022-12-07T15:12:12;17.77;;;10.77;;
48006;SDS011;33771;48.180;11.400;2022-12-07T15:14:37;17.80;;;10.57;;
48006;SDS011;33771;48.180;11.400;2022-12-07T15:17:03;14.93;;;10.33;;
48006;SDS011;33771;48.180;11.400;2022-12-07T15:19:29;16.83;;;11.67;;
48006;SDS011;33771;48.180;11.400;2022-12-07T15:21:54;19.30;;;12.20;;
48006;SDS011;33771;48.180;11.400;2022-12-07T15:24:21;16.40;;;11.30;;
48006;SDS011;33771;48.180;11.400;2022-12-07T15:26:47;18.20;;;11.80;;
48006;SDS011;33771;48.180;11.400;2022-12-07T15:29:13;16.93;;;11.00;;
48006;SDS011;33771;48.180;11.400;2022-12-07T15:31:39;17.33;;;11.97;;
48006;SDS011;33771;48.180;11.400;2022-12-07T15:34:05;17.47;;;10.90;;
48006;SDS011;33771;48.180;11.400;2022-12-07T15:36:31;18.87;;;11.70;;
48006;SDS011;33771;48.180;11.400;2022-12-07T15:38:57;17.83;;;12.67;;
48006;SDS011;33771;48.180;11.400;2022-12-07T15:41:24;22.50;;;15.07;;
48006;SDS011;33771;48.180;11.400;2022-12-07T15:43:50;23.73;;;15.33;;
48006;SDS011;33771;48.180;11.400;2022-12-07T15:46:38;21.33;;;13.80;;
48006;SDS011;33771;48.180;11.400;2022-12-07T15:49:09;18.67;;;12.47;;
48006;SDS011;33771;48.180;11.400;2022-12-07T15:51:38;17.77;;;10.77;;
48006;SDS011;33771;48.180;11.400;2022-12-07T15:54:06;18.93;;;11.10;;
48006;SDS011;33771;48.180;11.400;2022-12-07T15:56:32;18.67;;;11.53;;
48006;SDS011;33771;48.180;11.400;2022-12-07T15:58:58;16.27;;;11.10;;
48006;SDS011;33771;48.180;11.400;2022-12-07T16:01:23;16.97;;;10.10;;
48006;SDS011;33771;48.180;11.400;2022-12-07T16:03:49;17.57;;;10.73;;
48006;SDS011;33771;48.180;11.400;2022-12-07T16:06:15;19.50;;;11.00;;
48006;SDS011;33771;48.180;11.400;2022-12-07T16:08:43;22.13;;;12.57;;
48006;SDS011;33771;48.180;11.400;2022-12-07T16:11:09;18.40;;;11.40;;
48006;SDS011;33771;48.180;11.400;2022-12-07T16:13:35;20.77;;;12.83;;
48006;SDS011;33771;48.180;11.400;2022-12-07T16:16:19;19.83;;;13.23;;
48006;SDS011;33771;48.180;11.400;2022-12-07T16:18:46;21.87;;;12.30;;
48006;SDS011;33771;48.180;11.400;2022-12-07T16:21:13;27.67;;;12.77;;
48006;SDS011;33771;48.180;11.400;2022-12-07T16:23:39;18.33;;;11.50;;
48006;SDS011;33771;48.180;11.400;2022-12-07T16:26:06;17.60;;;11.87;;
48006;SDS011;33771;48.180;11.400;2022-12-07T16:28:36;18.77;;;11.13;;
48006;SDS011;33771;48.180;11.400;2022-12-07T16:31:06;22.57;;;11.40;;
48006;SDS011;33771;48.180;11.400;2022-12-07T16:33:39;18.20;;;11.30;;
48006;SDS011;33771;48.180;11.400;2022-12-07T16:36:06;23.20;;;14.03;;
48006;SDS011;33771;48.180;11.400;2022-12-07T16:38:38;24.63;;;16.30;;
48006;SDS011;33771;48.180;11.400;2022-12-07T16:41:05;24.63;;;16.13;;
48006;SDS011;33771;48.180;11.400;2022-12-07T16:43:31;32.57;;;17.70;;
48006;SDS011;33771;48.180;11.400;2022-12-07T16:45:57;31.03;;;16.77;;
48006;SDS011;33771;48.180;11.400;2022-12-07T16:48:23;26.83;;;15.30;;
48006;SDS011;33771;48.180;11.400;2022-12-07T16:50:49;25.23;;;14.90;;
48006;SDS011;33771;48.180;11.400;2022-12-07T16:53:15;26.80;;;15.57;;
48006;SDS011;33771;48.180;11.400;2022-12-07T16:55:42;24.73;;;13.43;;
48006;SDS011;33771;48.180;11.400;2022-12-07T16:58:10;21.70;;;12.20;;
48006;SDS011;33771;48.180;11.400;2022-12-07T17:00:37;23.43;;;11.83;;
48006;SDS011;33771;48.180;11.400;2022-12-07T17:03:03;18.97;;;11.37;;
48006;SDS011;33771;48.180;11.400;2022-12-07T17:05:28;21.23;;;11.83;;
48006;SDS011;33771;48.180;11.400;2022-12-07T17:07:54;17.50;;;10.80;;
48006;SDS011;33771;48.180;11.400;2022-12-07T17:10:20;19.37;;;11.37;;
48006;SDS011;33771;48.180;11.400;2022-12-07T17:12:46;18.53;;;11.03;;
48006;SDS011;33771;48.180;11.400;2022-12-07T17:15:12;19.30;;;11.70;;
48006;SDS011;33771;48.180;11.400;2022-12-07T17:17:42;24.33;;;12.47;;
48006;SDS011;33771;48.180;11.400;2022-12-07T17:20:21;23.40;;;12.23;;
48006;SDS011;33771;48.180;11.400;2022-12-07T17:22:48;20.87;;;12.00;;
48006;SDS011;33771;48.180;11.400;2022-12-07T17:25:13;23.73;;;12.83;;
48006;SDS011;33771;48.180;11.400;2022-12-07T17:27:42;17.90;;;11.73;;
48006;SDS011;33771;48.180;11.400;2022-12-07T17:30:08;20.70;;;12.60;;
48006;SDS011;33771;48.180;11.400;2022-12-07T17:32:34;21.00;;;12.33;;
48006;SDS011;33771;48.180;11.400;2022-12-07T17:35:00;25.13;;;13.10;;
48006;SDS011;33771;48.180;11.400;2022-12-07T17:37:26;24.77;;;13.93;;
48006;SDS011;33771;48.180;11.400;2022-12-07T17:39:52;25.17;;;14.30;;
48006;SDS011;33771;48.180;11.400;2022-12-07T17:42:20;26.53;;;15.60;;
48006;SDS011;33771;48.180;11.400;2022-12-07T17:45:05;24.43;;;14.60;;
48006;SDS011;33771;48.180;11.400;2022-12-07T17:47:33;25.77;;;15.83;;
48006;SDS011;33771;48.180;11.400;2022-12-07T17:49:58;25.30;;;15.57;;
48006;SDS011;33771;48.180;11.400;2022-12-07T17:52:24;28.17;;;15.50;;
48006;SDS011;33771;48.180;11.400;2022-12-07T17:55:08;26.43;;;13.93;;
48006;SDS011;33771;48.180;11.400;2022-12-07T17:57:34;23.10;;;14.60;;
48006;SDS011;33771;48.180;11.400;2022-12-07T17:59:59;21.23;;;12.97;;
48006;SDS011;33771;48.180;11.400;2022-12-07T18:02:25;23.70;;;14.03;;
48006;SDS011;33771;48.180;11.400;2022-12-07T18:04:50;26.40;;;13.93;;
48006;SDS011;33771;48.180;11.400;2022-12-07T18:07:17;25.50;;;14.40;;
48006;SDS011;33771;48.180;11.400;2022-12-07T18:09:43;24.47;;;13.77;;
48006;SDS011;33771;48.180;11.400;2022-12-07T18:12:08;26.03;;;14.60;;
48006;SDS011;33771;48.180;11.400;2022-12-07T18:14:34;24.77;;;15.00;;
48006;SDS011;33771;48.180;11.400;2022-12-07T18:17:00;31.17;;;15.87;;
48006;SDS011;33771;48.180;11.400;2022-12-07T18:19:26;36.60;;;18.10;;
48006;SDS011;33771;48.180;11.400;2022-12-07T18:21:51;31.23;;;17.87;;
48006;SDS011;33771;48.180;11.400;2022-12-07T18:24:17;29.90;;;18.03;;
48006;SDS011;33771;48.180;11.400;2022-12-07T18:26:45;33.40;;;19.10;;
48006;SDS011;33771;48.180;11.400;2022-12-07T18:29:16;33.57;;;19.53;;
48006;SDS011;33771;48.180;11.400;2022-12-07T18:31:42;30.87;;;17.60;;
48006;SDS011;33771;48.180;11.400;2022-12-07T18:34:11;30.93;;;17.33;;
48006;SDS011;33771;48.180;11.400;2022-12-07T18:36:40;29.73;;;17.77;;
48006;SDS011;33771;48.180;11.400;2022-12-07T18:39:06;23.73;;;15.50;;
48006;SDS011;33771;48.180;11.400;2022-12-07T18:41:33;25.50;;;15.43;;
48006;SDS011;33771;48.180;11.400;2022-12-07T18:43:59;31.37;;;16.50;;
48006;SDS011;33771;48.180;11.400;2022-12-07T18:46:25;37.80;;;21.10;;
48006;SDS011;33771;48.180;11.400;2022-12-07T18:48:51;44.53;;;23.07;;
48006;SDS011;33771;48.180;11.400;2022-12-07T18:51:19;54.23;;;26.70;;
48006;SDS011;33771;48.180;11.400;2022-12-07T18:53:47;45.37;;;23.63;;
48006;SDS011;33771;48.180;11.400;2022-12-07T18:56:14;43.37;;;21.53;;
48006;SDS011;33771;48.180;11.400;2022-12-07T18:58:41;33.33;;;19.00;;
48006;SDS011;33771;48.180;11.400;2022-12-07T19:01:28;29.40;;;17.20;;
48006;SDS011;33771;48.180;11.400;2022-12-07T19:03:55;25.63;;;15.33;;
48006;SDS011;33771;48.180;11.400;2022-12-07T19:06:21;32.57;;;16.23;;
48006;SDS011;33771;48.180;11.400;2022-12-07T19:08:47;25.57;;;15.20;;
48006;SDS011;33771;48.180;11.400;2022-12-07T19:11:16;25.73;;;15.50;;
48006;SDS011;33771;48.180;11.400;2022-12-07T19:14:01;21.80;;;13.97;;
48006;SDS011;33771;48.180;11.400;2022-12-07T19:16:26;21.80;;;14.07;;
48006;SDS011;33771;48.180;11.400;2022-12-07T19:18:52;24.53;;;14.83;;
48006;SDS011;33771;48.180;11.400;2022-12-07T19:21:18;23.90;;;14.57;;
48006;SDS011;33771;48.180;11.400;2022-12-07T19:23:43;26.07;;;14.50;;
48006;SDS011;33771;48.180;11.400;2022-12-07T19:26:09;28.63;;;14.33;;
48006;SDS011;33771;48.180;11.400;2022-12-07T19:28:34;22.20;;;14.00;;
48006;SDS011;33771;48.180;11.400;2022-12-07T19:31:04;26.00;;;15.17;;
48006;SDS011;33771;48.180;11.400;2022-12-07T19:33:30;26.77;;;15.77;;
48006;SDS011;33771;48.180;11.400;2022-12-07T19:35:55;27.10;;;16.50;;
48006;SDS011;33771;48.180;11.400;2022-12-07T19:38:21;25.23;;;15.27;;
48006;SDS011;33771;48.180;11.400;2022-12-07T19:40:47;27.57;;;16.93;;
48006;SDS011;33771;48.180;11.400;2022-12-07T19:43:12;25.10;;;15.97;;
48006;SDS011;33771;48.180;11.400;2022-12-07T19:45:38;25.20;;;16.13;;